Time;durP1;ratioP1;P1;durP2;ratioP2;P2;SDS_P1;SDS_P2;PMS_P1;PMS_P2;Temp;Humidity;BMP_temperature;BMP_pressure;BME280_temperature;BME280_humidity;BME280_pressure;Samples;Min_cycle;Max_cycle;Signal;HPM_P1;HPM_P2
2023/09/02 00:01:22;;;;;;;0.30;0.30;;;;;;;-144.31;100.00;58022.63;4843709;29;20130;-59
2023/09/02 00:03:47;;;;;;;0.30;0.30;;;;;;;-144.31;100.00;58022.63;4846047;29;20050;-58
2023/09/02 00:06:13;;;;;;;0.30;0.30;;;;;;;-144.31;100.00;58022.63;4843281;29;20057;-60
2023/09/02 00:08:38;;;;;;;0.30;0.30;;;;;;;-144.31;100.00;58022.63;4844758;29;20049;-58
2023/09/02 00:11:04;;;;;;;0.30;0.30;;;;;;;-144.31;100.00;58022.63;4843678;29;20116;-58
2023/09/02 00:13:29;;;;;;;0.30;0.30;;;;;;;-144.31;100.00;58022.63;4846740;29;20072;-61
2023/09/02 00:15:55;;;;;;;0.30;0.30;;;;;;;-144.31;100.00;58022.63;4848571;29;20049;-58
2023/09/02 00:18:20;;;;;;;0.25;0.25;;;;;;;-144.31;100.00;58022.63;4844698;29;20049;-59
2023/09/02 00:20:49;;;;;;;0.30;0.30;;;;;;;-144.31;100.00;58022.63;4844527;29;20041;-59
2023/09/02 00:23:14;;;;;;;0.20;0.20;;;;;;;-144.31;100.00;58022.63;4846072;29;20153;-58
2023/09/02 00:25:39;;;;;;;0.30;0.30;;;;;;;-144.31;100.00;58022.63;4841326;29;20297;-60
2023/09/02 00:28:05;;;;;;;0.30;0.30;;;;;;;-144.31;100.00;58022.63;4845473;29;20064;-57
2023/09/02 00:30:33;;;;;;;0.30;0.30;;;;;;;-144.31;100.00;58022.63;4847661;29;20737;-58
2023/09/02 00:32:58;;;;;;;0.30;0.30;;;;;;;-144.31;100.00;58022.63;4861440;29;20037;-58
2023/09/02 00:35:24;;;;;;;0.30;0.30;;;;;;;-144.31;100.00;58022.63;4847615;29;20061;-58
2023/09/02 00:37:49;;;;;;;0.30;0.30;;;;;;;-144.31;100.00;58022.63;4847015;29;20084;-57
2023/09/02 00:40:17;;;;;;;0.30;0.30;;;;;;;-144.31;100.00;58022.63;4849462;29;20412;-58
2023/09/02 00:42:44;;;;;;;0.30;0.30;;;;;;;-144.31;100.00;58022.63;4845054;29;20478;-58
2023/09/02 00:45:10;;;;;;;0.30;0.30;;;;;;;-144.31;100.00;58022.63;4846137;29;20045;-58
2023/09/02 00:47:35;;;;;;;0.30;0.30;;;;;;;-144.31;100.00;58022.63;4845682;29;20069;-58
2023/09/02 00:50:01;;;;;;;0.30;0.30;;;;;;;-144.31;100.00;58022.63;4850561;29;20041;-57
2023/09/02 00:52:26;;;;;;;0.30;0.30;;;;;;;-144.31;100.00;58022.63;4843341;29;20114;-59
2023/09/02 00:54:52;;;;;;;0.30;0.30;;;;;;;-144.31;100.00;58022.63;4829682;29;20396;-59
2023/09/02 00:57:18;;;;;;;0.30;0.30;;;;;;;-144.31;100.00;58022.63;4850149;29;20129;-59
2023/09/02 00:59:44;;;;;;;0.30;0.30;;;;;;;-144.31;100.00;58022.63;4844600;29;20055;-59
2023/09/02 01:02:10;;;;;;;0.30;0.30;;;;;;;-144.31;100.00;58022.63;4850654;29;20045;-56
2023/09/02 01:04:36;;;;;;;0.30;0.30;;;;;;;-144.31;100.00;58022.63;4843445;29;20078;-59
2023/09/02 01:07:02;;;;;;;0.30;0.30;;;;;;;-144.31;100.00;58022.63;4845080;29;20128;-59
2023/09/02 01:09:30;;;;;;;0.38;0.38;;;;;;;-144.31;100.00;58022.63;4848916;29;20120;-59
2023/09/02 01:12:02;;;;;;;0.30;0.30;;;;;;;-144.31;100.00;58022.63;4847713;29;20060;-59
2023/09/02 01:14:28;;;;;;;0.30;0.30;;;;;;;-144.31;100.00;58022.63;4848482;29;20041;-60
2023/09/02 01:16:53;;;;;;;0.30;0.30;;;;;;;-144.31;100.00;58022.63;4848589;29;20053;-60
2023/09/02 01:19:20;;;;;;;0.30;0.30;;;;;;;-144.31;100.00;58022.63;4846786;29;20882;-60
2023/09/02 01:22:43;;;;;;;0.30;0.30;;;;;;;-144.31;100.00;58022.63;4847929;29;20562;-59
2023/09/02 01:26:45;;;;;;;0.30;0.30;;;;;;;-144.31;100.00;58022.63;4844285;29;20128;-59
2023/09/02 01:29:18;;;;;;;0.30;0.30;;;;;;;-144.31;100.00;58022.63;4843742;29;20046;-58
2023/09/02 01:32:42;;;;;;;0.30;0.30;;;;;;;-144.31;100.00;58022.63;4846532;29;20067;-59
2023/09/02 01:36:06;;;;;;;0.30;0.30;;;;;;;-144.31;100.00;58022.63;4843462;29;20817;-58
2023/09/02 01:39:30;;;;;;;0.30;0.30;;;;;;;-144.31;100.00;58022.63;4846791;29;20487;-59
2023/09/02 01:42:43;;;;;;;0.30;0.30;;;;;;;-144.31;100.00;58022.63;4847238;29;20049;-58
2023/09/02 01:45:10;;;;;;;0.30;0.30;;;;;;;-144.31;100.00;58022.63;4850610;29;20100;-59
2023/09/02 01:47:38;;;;;;;0.40;0.40;;;;;;;-144.31;100.00;58022.63;4849350;29;20029;-58
2023/09/02 01:50:09;;;;;;;0.30;0.30;;;;;;;-144.31;100.00;58022.63;4851530;29;20140;-58
2023/09/02 01:52:35;;;;;;;0.38;0.38;;;;;;;-144.31;100.00;58022.63;4846900;29;20093;-58
2023/09/02 01:55:01;;;;;;;0.40;0.40;;;;;;;-144.31;100.00;58022.63;4849176;29;20045;-58
2023/09/02 01:57:27;;;;;;;0.30;0.30;;;;;;;-144.31;100.00;58022.63;4861921;29;20110;-58
2023/09/02 01:59:52;;;;;;;0.30;0.30;;;;;;;-144.31;100.00;58022.63;4859429;29;20073;-60
2023/09/02 02:02:18;;;;;;;0.30;0.30;;;;;;;-144.31;100.00;58022.63;4847587;29;20182;-58
2023/09/02 02:04:49;;;;;;;0.30;0.30;;;;;;;-144.31;100.00;58022.63;4850769;29;20049;-58
2023/09/02 02:07:16;;;;;;;0.30;0.30;;;;;;;-144.31;100.00;58022.63;4842462;29;20048;-58
2023/09/02 02:10:11;;;;;;;0.30;0.30;;;;;;;-144.31;100.00;58022.63;4843933;29;20041;-60
2023/09/02 02:12:40;;;;;;;0.30;0.30;;;;;;;-144.31;100.00;58022.63;4842472;29;20046;-58
2023/09/02 02:15:10;;;;;;;0.40;0.40;;;;;;;-144.31;100.00;58022.63;4843711;29;20515;-59
2023/09/02 02:17:41;;;;;;;0.30;0.30;;;;;;;-144.31;100.00;58022.63;4846342;29;20109;-58
2023/09/02 02:20:11;;;;;;;0.40;0.40;;;;;;;-144.31;100.00;58022.63;4843680;29;20495;-58
2023/09/02 02:22:37;;;;;;;0.40;0.40;;;;;;;-144.31;100.00;58022.63;4847900;29;20079;-57
2023/09/02 02:25:03;;;;;;;0.40;0.40;;;;;;;-144.31;100.00;58022.63;4845077;29;20119;-58
2023/09/02 02:27:44;;;;;;;0.30;0.30;;;;;;;-144.31;100.00;58022.63;4848850;29;20042;-58
2023/09/02 02:30:10;;;;;;;0.30;0.30;;;;;;;-144.31;100.00;58022.63;4844601;29;20037;-58
2023/09/02 02:32:36;;;;;;;0.30;0.30;;;;;;;-144.31;100.00;58022.63;4843305;29;20038;-58
2023/09/02 02:35:01;;;;;;;0.30;0.30;;;;;;;-144.31;100.00;58022.63;4845539;29;20044;-58
2023/09/02 02:37:26;;;;;;;0.30;0.30;;;;;;;-144.31;100.00;58022.63;4851672;29;20153;-59
2023/09/02 02:40:05;;;;;;;0.30;0.30;;;;;;;-144.31;100.00;58022.63;4845890;29;20047;-58
2023/09/02 02:42:33;;;;;;;0.30;0.30;;;;;;;-144.31;100.00;58022.63;4848843;29;20056;-58
2023/09/02 02:44:58;;;;;;;0.30;0.30;;;;;;;-144.31;100.00;58022.63;4842628;29;20029;-58
2023/09/02 02:47:24;;;;;;;0.30;0.30;;;;;;;-144.31;100.00;58022.63;4847110;29;21513;-58
2023/09/02 02:49:49;;;;;;;0.30;0.30;;;;;;;-144.31;100.00;58022.63;4842508;29;20181;-58
2023/09/02 02:52:18;;;;;;;0.30;0.30;;;;;;;-144.31;100.00;58022.63;4849009;29;20484;-57
2023/09/02 02:54:44;;;;;;;0.40;0.40;;;;;;;-144.31;100.00;58022.63;4857440;29;20049;-58
2023/09/02 02:57:10;;;;;;;0.35;0.35;;;;;;;-144.31;100.00;58022.63;4857158;29;20042;-59
2023/09/02 02:59:36;;;;;;;0.30;0.30;;;;;;;-144.31;100.00;58022.63;4861249;29;20132;-58
2023/09/02 03:02:02;;;;;;;0.30;0.30;;;;;;;-144.31;100.00;58022.63;4844179;29;20468;-58
2023/09/02 03:04:28;;;;;;;0.35;0.35;;;;;;;-144.31;100.00;58022.63;4845145;29;20045;-58
2023/09/02 03:06:53;;;;;;;0.30;0.30;;;;;;;-144.31;100.00;58022.63;4844893;29;20142;-58
2023/09/02 03:09:19;;;;;;;0.35;0.35;;;;;;;-144.31;100.00;58022.63;4846630;29;20511;-57
2023/09/02 03:11:47;;;;;;;0.30;0.30;;;;;;;-144.31;100.00;58022.63;4857905;29;20061;-58
2023/09/02 03:14:12;;;;;;;0.40;0.40;;;;;;;-144.31;100.00;58022.63;4841590;29;20041;-60
2023/09/02 03:16:38;;;;;;;0.32;0.32;;;;;;;-144.31;100.00;58022.63;4846904;29;20045;-58
2023/09/02 03:19:03;;;;;;;0.40;0.40;;;;;;;-144.31;100.00;58022.63;4845698;29;20045;-57
2023/09/02 03:21:30;;;;;;;;;;;;;;;-144.31;100.00;58022.63;4859265;29;20492;-58
2023/09/02 03:23:56;;;;;;;0.30;0.30;;;;;;;-144.31;100.00;58022.63;4844473;29;19924;-58
2023/09/02 03:26:24;;;;;;;0.40;0.40;;;;;;;-144.31;100.00;58022.63;4852368;29;20037;-58
2023/09/02 03:28:51;;;;;;;0.40;0.40;;;;;;;-144.31;100.00;58022.63;4845834;29;20037;-58
2023/09/02 03:31:18;;;;;;;0.30;0.30;;;;;;;-144.31;100.00;58022.63;4841866;29;20050;-58
2023/09/02 03:33:44;;;;;;;0.40;0.40;;;;;;;-144.31;100.00;58022.63;4845792;29;20051;-59
2023/09/02 03:36:16;;;;;;;0.40;0.40;;;;;;;-144.31;100.00;58022.63;4855375;29;20411;-57
2023/09/02 03:38:43;;;;;;;0.30;0.30;;;;;;;-144.31;100.00;58022.63;4849862;29;20068;-58
2023/09/02 03:41:12;;;;;;;0.32;0.32;;;;;;;-144.31;100.00;58022.63;4846014;29;20041;-58
2023/09/02 03:43:38;;;;;;;0.30;0.30;;;;;;;-144.31;100.00;58022.63;4841950;29;20487;-58
2023/09/02 03:46:04;;;;;;;0.40;0.40;;;;;;;-144.31;100.00;58022.63;4844271;29;20045;-59
2023/09/02 03:48:30;;;;;;;0.40;0.40;;;;;;;-144.31;100.00;58022.63;4844112;29;20045;-58
2023/09/02 03:50:59;;;;;;;0.40;0.40;;;;;;;-144.31;100.00;58022.63;4843671;29;20038;-58
2023/09/02 03:53:25;;;;;;;0.30;0.30;;;;;;;-144.31;100.00;58022.63;4844017;29;20045;-59
2023/09/02 03:55:51;;;;;;;0.40;0.40;;;;;;;-144.31;100.00;58022.63;4839418;29;20061;-58
2023/09/02 03:58:17;;;;;;;0.30;0.30;;;;;;;-144.31;100.00;58022.63;4857062;29;20042;-58
2023/09/02 04:00:42;;;;;;;0.30;0.30;;;;;;;-144.31;100.00;58022.63;4844061;29;20038;-59
2023/09/02 04:03:08;;;;;;;0.40;0.40;;;;;;;-144.31;100.00;58022.63;4843628;29;20070;-58
2023/09/02 04:05:33;;;;;;;0.40;0.40;;;;;;;-144.31;100.00;58022.63;4844390;29;20152;-58
2023/09/02 04:07:58;;;;;;;0.40;0.40;;;;;;;-144.31;100.00;58022.63;4850636;29;20130;-58
2023/09/02 04:10:24;;;;;;;0.40;0.40;;;;;;;-144.31;100.00;58022.63;4846629;29;20048;-58
2023/09/02 04:12:49;;;;;;;0.40;0.40;;;;;;;-144.31;100.00;58022.63;4843056;29;20033;-58
2023/09/02 04:15:15;;;;;;;0.40;0.40;;;;;;;-144.31;100.00;58022.63;4847556;29;20049;-58
2023/09/02 04:17:40;;;;;;;0.40;0.40;;;;;;;-144.31;100.00;58022.63;4853332;29;20124;-57
2023/09/02 04:20:07;;;;;;;0.40;0.40;;;;;;;-144.31;100.00;58022.63;4860177;29;20102;-60
2023/09/02 04:22:33;;;;;;;0.40;0.40;;;;;;;-144.31;100.00;58022.63;4860234;29;20400;-59
2023/09/02 04:24:59;;;;;;;0.30;0.30;;;;;;;-144.31;100.00;58022.63;4860909;29;20034;-60
2023/09/02 04:27:28;;;;;;;0.30;0.30;;;;;;;-144.31;100.00;58022.63;4845579;29;20193;-59
2023/09/02 04:29:55;;;;;;;0.40;0.40;;;;;;;-144.31;100.00;58022.63;4851383;29;20041;-59
2023/09/02 04:32:20;;;;;;;0.40;0.40;;;;;;;-144.31;100.00;58022.63;4848392;29;20041;-59
2023/09/02 04:34:48;;;;;;;0.30;0.30;;;;;;;-144.31;100.00;58022.63;4849018;29;20056;-58
2023/09/02 04:37:14;;;;;;;0.30;0.30;;;;;;;-144.31;100.00;58022.63;4862243;29;20440;-59
2023/09/02 04:39:40;;;;;;;0.32;0.32;;;;;;;-144.31;100.00;58022.63;4854561;29;20037;-58
2023/09/02 04:42:07;;;;;;;0.30;0.30;;;;;;;-144.31;100.00;58022.63;4854309;29;20033;-58
2023/09/02 04:44:35;;;;;;;0.40;0.40;;;;;;;-144.31;100.00;58022.63;4852436;29;20038;-59
2023/09/02 04:47:06;;;;;;;0.38;0.38;;;;;;;-144.31;100.00;58022.63;4850308;29;20508;-60
2023/09/02 04:49:32;;;;;;;0.40;0.40;;;;;;;-144.31;100.00;58022.63;4860445;29;20048;-58
2023/09/02 04:52:03;;;;;;;0.40;0.40;;;;;;;-144.31;100.00;58022.63;4844695;29;20121;-58
2023/09/02 04:55:27;;;;;;;0.30;0.30;;;;;;;-144.31;100.00;58022.63;4859343;29;20042;-60
2023/09/02 04:58:52;;;;;;;0.40;0.40;;;;;;;-144.31;100.00;58022.63;4849038;29;20056;-59
2023/09/02 05:02:18;;;;;;;0.40;0.40;;;;;;;-144.31;100.00;58022.63;4844065;29;20059;-59
2023/09/02 05:05:43;;;;;;;0.40;0.40;;;;;;;-144.31;100.00;58022.63;4851379;29;20049;-58
2023/09/02 05:09:09;;;;;;;0.40;0.40;;;;;;;-144.31;100.00;58022.63;4861057;29;20053;-58
2023/09/02 05:12:00;;;;;;;0.40;0.40;;;;;;;-144.31;100.00;58022.63;4862204;29;20053;-57
2023/09/02 05:14:56;;;;;;;0.40;0.40;;;;;;;-144.31;100.00;58022.63;4847653;29;20148;-57
2023/09/02 05:18:09;;;;;;;0.40;0.40;;;;;;;-144.31;100.00;58022.63;4847819;29;20511;-59
2023/09/02 05:21:37;;;;;;;0.40;0.40;;;;;;;-144.31;100.00;58022.63;4861919;29;20050;-59
2023/09/02 05:25:02;;;;;;;0.30;0.30;;;;;;;-144.31;100.00;58022.63;4843437;29;20164;-58
2023/09/02 05:28:27;;;;;;;0.40;0.40;;;;;;;-144.31;100.00;58022.63;4858768;29;20049;-58
2023/09/02 05:31:53;;;;;;;0.40;0.40;;;;;;;-144.31;100.00;58022.63;4858380;29;20042;-58
2023/09/02 05:35:17;;;;;;;0.40;0.40;;;;;;;-144.31;100.00;58022.63;4849253;29;20041;-58
2023/09/02 05:38:41;;;;;;;0.30;0.30;;;;;;;-144.31;100.00;58022.63;4845364;29;20053;-59
2023/09/02 05:42:05;;;;;;;0.35;0.35;;;;;;;-144.31;100.00;58022.63;4843722;29;20055;-59
2023/09/02 05:45:29;;;;;;;0.30;0.30;;;;;;;-144.31;100.00;58022.63;4844882;29;20037;-57
2023/09/02 05:48:53;;;;;;;0.30;0.30;;;;;;;-144.31;100.00;58022.63;4845876;29;20065;-58
2023/09/02 05:52:16;;;;;;;0.40;0.40;;;;;;;-144.31;100.00;58022.63;4842730;29;20518;-57
2023/09/02 05:55:40;;;;;;;0.30;0.30;;;;;;;-144.31;100.00;58022.63;4850084;29;20041;-58
2023/09/02 05:59:05;;;;;;;0.30;0.30;;;;;;;-144.31;100.00;58022.63;4846292;29;20157;-58
2023/09/02 06:02:33;;;;;;;0.30;0.30;;;;;;;-144.31;100.00;58022.63;4859506;29;20101;-58
2023/09/02 06:05:57;;;;;;;0.30;0.30;;;;;;;-144.31;100.00;58022.63;4845026;29;20040;-60
2023/09/02 06:09:26;;;;;;;0.30;0.30;;;;;;;-144.31;100.00;58022.63;4844032;29;20046;-59
2023/09/02 06:12:50;;;;;;;0.30;0.30;;;;;;;-144.31;100.00;58022.63;4844620;29;20041;-59
2023/09/02 06:16:14;;;;;;;0.30;0.30;;;;;;;-144.31;100.00;58022.63;4848316;29;20059;-59
2023/09/02 06:19:38;;;;;;;0.30;0.30;;;;;;;-144.31;100.00;58022.63;4844856;29;20078;-59
2023/09/02 06:23:01;;;;;;;0.30;0.30;;;;;;;-144.31;100.00;58022.63;4846669;29;20037;-58
2023/09/02 06:26:26;;;;;;;0.30;0.30;;;;;;;-144.31;100.00;58022.63;4861608;29;20045;-58
2023/09/02 06:29:49;;;;;;;0.30;0.30;;;;;;;-144.31;100.00;58022.63;4848717;29;20037;-58
2023/09/02 06:33:13;;;;;;;0.30;0.30;;;;;;;-144.31;100.00;58022.63;4844928;29;20047;-58
2023/09/02 06:36:37;;;;;;;0.20;0.20;;;;;;;-144.31;100.00;58022.63;4844377;29;20045;-60
2023/09/02 06:40:02;;;;;;;0.20;0.20;;;;;;;-144.31;100.00;58022.63;4846242;29;20042;-58
2023/09/02 06:43:26;;;;;;;0.20;0.20;;;;;;;-144.31;100.00;58022.63;4843662;29;20041;-58
2023/09/02 06:46:50;;;;;;;0.30;0.30;;;;;;;-144.31;100.00;58022.63;4842318;29;20052;-59
2023/09/02 06:50:13;;;;;;;0.20;0.20;;;;;;;-144.31;100.00;58022.63;4844531;29;20042;-60
2023/09/02 06:53:38;;;;;;;0.30;0.30;;;;;;;-144.31;100.00;58022.63;4844008;29;20076;-58
2023/09/02 06:56:34;;;;;;;0.20;0.20;;;;;;;-144.31;100.00;58022.63;4844611;29;20070;-60
2023/09/02 06:59:58;;;;;;;0.20;0.20;;;;;;;-144.31;100.00;58022.63;4843521;29;20041;-58
2023/09/02 07:03:22;;;;;;;0.20;0.20;;;;;;;-144.31;100.00;58022.63;4846294;29;20050;-58
2023/09/02 07:06:45;;;;;;;0.20;0.20;;;;;;;-144.31;100.00;58022.63;4842934;29;20045;-59
2023/09/02 07:10:09;;;;;;;0.10;0.10;;;;;;;-144.31;100.00;58022.63;4845208;29;20779;-59
2023/09/02 07:13:33;;;;;;;0.20;0.20;;;;;;;-144.31;100.00;58022.63;4840710;29;20140;-58
2023/09/02 07:16:58;;;;;;;0.20;0.20;;;;;;;-144.31;100.00;58022.63;4846146;29;20166;-59
2023/09/02 07:20:22;;;;;;;0.20;0.20;;;;;;;-144.31;100.00;58022.63;4843536;29;20100;-57
2023/09/02 07:23:46;;;;;;;0.20;0.20;;;;;;;-144.31;100.00;58022.63;4845827;29;20046;-58
2023/09/02 07:27:10;;;;;;;0.20;0.20;;;;;;;-144.31;100.00;58022.63;4843902;29;20072;-58
2023/09/02 07:30:37;;;;;;;0.10;0.10;;;;;;;-144.31;100.00;58022.63;4848153;29;20049;-58
2023/09/02 07:34:02;;;;;;;0.10;0.10;;;;;;;-144.31;100.00;58022.63;4846146;29;20046;-60
2023/09/02 07:37:26;;;;;;;0.10;0.10;;;;;;;-144.31;100.00;58022.63;4842115;29;20041;-59
2023/09/02 07:40:49;;;;;;;0.10;0.10;;;;;;;-144.31;100.00;58022.63;4849794;29;20067;-59
2023/09/02 07:44:13;;;;;;;0.10;0.10;;;;;;;-144.31;100.00;58022.63;4848256;29;20109;-59
2023/09/02 07:47:37;;;;;;;0.10;0.10;;;;;;;-144.31;100.00;58022.63;4847340;29;20038;-58
2023/09/02 07:51:01;;;;;;;0.10;0.10;;;;;;;-144.31;100.00;58022.63;4850042;29;20042;-60
2023/09/02 07:54:26;;;;;;;0.10;0.10;;;;;;;-144.31;100.00;58022.63;4851276;29;20045;-58
2023/09/02 07:57:50;;;;;;;0.10;0.10;;;;;;;-144.31;100.00;58022.63;4846079;29;20102;-58
2023/09/02 08:01:14;;;;;;;0.10;0.10;;;;;;;-144.31;100.00;58022.63;4847417;29;20042;-58
2023/09/02 08:04:38;;;;;;;0.10;0.10;;;;;;;-144.31;100.00;58022.63;4847932;29;20109;-57
2023/09/02 08:08:02;;;;;;;0.10;0.10;;;;;;;-144.31;100.00;58022.63;4847219;29;20182;-59
2023/09/02 08:11:26;;;;;;;0.10;0.10;;;;;;;-144.31;100.00;58022.63;4848252;29;20124;-58
2023/09/02 08:14:50;;;;;;;0.10;0.10;;;;;;;-144.31;100.00;58022.63;4847714;29;20037;-59
2023/09/02 08:18:15;;;;;;;0.10;0.10;;;;;;;-144.31;100.00;58022.63;4848622;29;20054;-58
2023/09/02 08:21:39;;;;;;;0.10;0.10;;;;;;;-144.31;100.00;58022.63;4850693;29;20185;-59
2023/09/02 08:25:03;;;;;;;0.10;0.10;;;;;;;-144.31;100.00;58022.63;4848395;29;20045;-59
2023/09/02 08:28:27;;;;;;;0.10;0.10;;;;;;;-144.31;100.00;58022.63;4847732;29;20175;-58
2023/09/02 08:31:52;;;;;;;0.10;0.10;;;;;;;-144.31;100.00;58022.63;4855675;29;20049;-58
2023/09/02 08:35:16;;;;;;;0.10;0.10;;;;;;;-144.31;100.00;58022.63;4845935;29;20540;-58
2023/09/02 08:38:40;;;;;;;0.10;0.10;;;;;;;-144.31;100.00;58022.63;4846613;29;20037;-58
2023/09/02 08:42:04;;;;;;;0.10;0.10;;;;;;;-144.31;100.00;58022.63;4852007;29;20146;-58
2023/09/02 08:45:33;;;;;;;0.10;0.10;;;;;;;-144.31;100.00;58022.63;4847669;29;20049;-58
2023/09/02 08:48:59;;;;;;;0.10;0.10;;;;;;;-144.31;100.00;58022.63;4844950;29;20113;-60
2023/09/02 08:52:28;;;;;;;0.10;0.10;;;;;;;-144.31;100.00;58022.63;4844320;29;20038;-58
2023/09/02 08:55:52;;;;;;;0.10;0.10;;;;;;;-144.31;100.00;58022.63;4855366;29;20048;-58
2023/09/02 08:59:16;;;;;;;0.10;0.10;;;;;;;-144.31;100.00;58022.63;4845914;29;20073;-58
2023/09/02 09:02:40;;;;;;;0.10;0.10;;;;;;;-144.31;100.00;58022.63;4848591;29;20385;-58
2023/09/02 09:06:08;;;;;;;0.10;0.10;;;;;;;-144.31;100.00;58022.63;4853155;29;20110;-59
2023/09/02 09:09:34;;;;;;;0.10;0.10;;;;;;;-144.31;100.00;58022.63;4847041;29;20846;-59
2023/09/02 09:12:59;;;;;;;0.10;0.10;;;;;;;-144.31;100.00;58022.63;4848049;29;20045;-58
2023/09/02 09:16:33;;;;;;;0.10;0.10;;;;;;;-144.31;100.00;58022.63;4851962;29;20049;-58
2023/09/02 09:20:01;;;;;;;0.10;0.10;;;;;;;-144.31;100.00;58022.63;4859641;29;20059;-58
2023/09/02 09:23:25;;;;;;;0.10;0.10;;;;;;;-144.31;100.00;58022.63;4846986;29;20041;-59
2023/09/02 09:26:51;;;;;;;0.10;0.10;;;;;;;-144.31;100.00;58022.63;4847664;29;20041;-58
2023/09/02 09:30:25;;;;;;;0.10;0.10;;;;;;;-144.31;100.00;58022.63;4848339;29;20038;-58
2023/09/02 09:34:01;;;;;;;0.10;0.10;;;;;;;-144.31;100.00;58022.63;4847083;29;20048;-58
2023/09/02 09:37:26;;;;;;;0.10;0.10;;;;;;;-144.31;100.00;58022.63;4845267;29;20464;-58
2023/09/02 09:40:49;;;;;;;0.10;0.10;;;;;;;-144.31;100.00;58022.63;4847833;29;20140;-58
2023/09/02 09:44:15;;;;;;;0.10;0.10;;;;;;;-144.31;100.00;58022.63;4844104;29;20273;-58
2023/09/02 09:47:39;;;;;;;0.10;0.10;;;;;;;-144.31;100.00;58022.63;4850243;29;20033;-58
2023/09/02 09:51:25;;;;;;;0.10;0.10;;;;;;;-144.31;100.00;58022.63;4843873;29;20069;-58
2023/09/02 09:54:51;;;;;;;0.10;0.10;;;;;;;-144.31;100.00;58022.63;4846750;29;20045;-58
2023/09/02 09:58:21;;;;;;;0.10;0.10;;;;;;;-144.31;100.00;58022.63;4848254;29;20041;-58
2023/09/02 10:01:47;;;;;;;0.10;0.10;;;;;;;-144.31;100.00;58022.63;4843109;29;20836;-59
2023/09/02 10:05:11;;;;;;;0.10;0.10;;;;;;;-144.31;100.00;58022.63;4843263;29;21769;-58
2023/09/02 10:08:48;;;;;;;0.10;0.10;;;;;;;-144.31;100.00;58022.63;4843629;29;20083;-58
2023/09/02 10:12:18;;;;;;;0.00;0.00;;;;;;;-144.31;100.00;58022.63;4844435;29;20034;-58
2023/09/02 10:15:43;;;;;;;0.10;0.10;;;;;;;-144.31;100.00;58022.63;4845412;29;20490;-60
2023/09/02 10:19:07;;;;;;;0.10;0.10;;;;;;;-144.31;100.00;58022.63;4857495;29;20045;-59
2023/09/02 10:22:33;;;;;;;0.00;0.00;;;;;;;-144.31;100.00;58022.63;4846653;29;20483;-59
2023/09/02 10:26:05;;;;;;;0.10;0.10;;;;;;;-144.31;100.00;58022.63;4847475;29;20063;-59
2023/09/02 10:29:36;;;;;;;0.10;0.10;;;;;;;-144.31;100.00;58022.63;4845964;29;20045;-58
2023/09/02 10:33:17;;;;;;;0.00;0.00;;;;;;;-144.31;100.00;58022.63;4846067;29;20042;-59
2023/09/02 10:36:53;;;;;;;0.00;0.00;;;;;;;-144.31;100.00;58022.63;4843982;29;20033;-58
2023/09/02 10:40:32;;;;;;;0.00;0.00;;;;;;;-144.31;100.00;58022.63;4849682;29;20064;-58
2023/09/02 10:43:57;;;;;;;0.00;0.00;;;;;;;-144.31;100.00;58022.63;4842097;29;20079;-58
2023/09/02 10:47:22;;;;;;;0.03;0.03;;;;;;;-144.31;100.00;58022.63;4851581;29;20383;-58
2023/09/02 10:50:47;;;;;;;0.10;0.10;;;;;;;-144.31;100.00;58022.63;4850227;29;20083;-58
2023/09/02 10:54:11;;;;;;;0.10;0.10;;;;;;;-144.31;100.00;58022.63;4845364;29;20093;-59
2023/09/02 10:57:50;;;;;;;0.00;0.00;;;;;;;-144.31;100.00;58022.63;4850651;29;20053;-58
2023/09/02 11:01:18;;;;;;;0.00;0.00;;;;;;;-144.31;100.00;58022.63;4843605;29;20516;-58
2023/09/02 11:04:48;;;;;;;0.00;0.00;;;;;;;-144.31;100.00;58022.63;4840856;29;20835;-60
2023/09/02 11:08:41;;;;;;;0.00;0.00;;;;;;;-144.31;100.00;58022.63;4842061;29;20053;-58
2023/09/02 11:12:08;;;;;;;0.00;0.00;;;;;;;-144.31;100.00;58022.63;4842464;29;20054;-58
2023/09/02 11:15:36;;;;;;;0.00;0.00;;;;;;;-144.31;100.00;58022.63;4847691;29;20065;-58
2023/09/02 11:19:39;;;;;;;0.00;0.00;;;;;;;-144.31;100.00;58022.63;4843750;29;20093;-59
2023/09/02 11:23:05;;;;;;;0.00;0.00;;;;;;;-144.31;100.00;58022.63;4844931;29;20236;-58
2023/09/02 11:26:48;;;;;;;0.00;0.00;;;;;;;-144.31;100.00;58022.63;4847300;29;20045;-58
2023/09/02 11:30:20;;;;;;;0.00;0.00;;;;;;;-144.31;100.00;58022.63;4860981;29;20050;-59
2023/09/02 11:33:47;;;;;;;0.00;0.00;;;;;;;-144.31;100.00;58022.63;4845999;29;20037;-57
2023/09/02 11:37:15;;;;;;;0.00;0.00;;;;;;;-144.31;100.00;58022.63;4844412;29;20057;-60
2023/09/02 11:40:39;;;;;;;0.00;0.00;;;;;;;-144.31;100.00;58022.63;4858234;29;20141;-57
2023/09/02 11:44:12;;;;;;;0.00;0.00;;;;;;;-144.31;100.00;58022.63;4845498;29;20038;-57
2023/09/02 11:47:37;;;;;;;0.00;0.00;;;;;;;-144.31;100.00;58022.63;4849920;29;20053;-59
2023/09/02 11:51:01;;;;;;;0.00;0.00;;;;;;;-144.31;100.00;58022.63;4842120;29;20089;-57
2023/09/02 11:54:26;;;;;;;0.00;0.00;;;;;;;-144.31;100.00;58022.63;4845085;29;20106;-58
2023/09/02 11:57:56;;;;;;;0.00;0.00;;;;;;;-144.31;100.00;58022.63;4841022;29;20068;-59
2023/09/02 12:01:21;;;;;;;0.00;0.00;;;;;;;-144.31;100.00;58022.63;4845587;29;20050;-58
2023/09/02 12:04:47;;;;;;;0.00;0.00;;;;;;;-144.31;100.00;58022.63;4845350;29;20038;-57
2023/09/02 12:08:11;;;;;;;0.00;0.00;;;;;;;-144.31;100.00;58022.63;4843132;29;20038;-57
2023/09/02 12:11:35;;;;;;;0.00;0.00;;;;;;;-144.31;100.00;58022.63;4842915;29;20348;-57
2023/09/02 12:15:00;;;;;;;0.00;0.00;;;;;;;-144.31;100.00;58022.63;4842406;29;20044;-58
2023/09/02 12:18:24;;;;;;;0.00;0.00;;;;;;;-144.31;100.00;58022.63;4844066;29;20456;-57
2023/09/02 12:21:49;;;;;;;0.00;0.00;;;;;;;-144.31;100.00;58022.63;4843841;29;20088;-57
2023/09/02 12:25:15;;;;;;;0.00;0.00;;;;;;;-144.31;100.00;58022.63;4843224;29;20046;-56
2023/09/02 12:28:47;;;;;;;0.00;0.00;;;;;;;-144.31;100.00;58022.63;4846871;29;20674;-58
2023/09/02 12:32:14;;;;;;;0.00;0.00;;;;;;;-144.31;100.00;58022.63;4848870;29;21755;-57
2023/09/02 12:35:38;;;;;;;0.00;0.00;;;;;;;-144.31;100.00;58022.63;4847258;29;20388;-58
2023/09/02 12:39:03;;;;;;;0.00;0.00;;;;;;;-144.31;100.00;58022.63;4844585;29;20059;-57
2023/09/02 12:42:36;;;;;;;0.00;0.00;;;;;;;-144.31;100.00;58022.63;4846149;29;20045;-57
2023/09/02 12:46:00;;;;;;;;;;;;;;;-144.31;100.00;58022.63;4861855;29;20458;-58
2023/09/02 12:49:24;;;;;;;0.00;0.00;;;;;;;-144.31;100.00;58022.63;4844886;29;19920;-59
2023/09/02 12:52:53;;;;;;;0.00;0.00;;;;;;;-144.31;100.00;58022.63;4845918;29;20048;-57
2023/09/02 12:56:19;;;;;;;0.00;0.00;;;;;;;-144.31;100.00;58022.63;4848559;29;20784;-57
2023/09/02 12:59:43;;;;;;;0.00;0.00;;;;;;;-144.31;100.00;58022.63;4843103;29;20070;-59
2023/09/02 13:03:06;;;;;;;0.00;0.00;;;;;;;-144.31;100.00;58022.63;4849612;29;20070;-58
2023/09/02 13:06:32;;;;;;;0.00;0.00;;;;;;;-144.31;100.00;58022.63;4849133;29;20455;-57
2023/09/02 13:09:56;;;;;;;0.00;0.00;;;;;;;-144.31;100.00;58022.63;4844555;29;20065;-57
2023/09/02 13:13:20;;;;;;;0.00;0.00;;;;;;;-144.31;100.00;58022.63;4846117;29;20492;-57
2023/09/02 13:16:44;;;;;;;0.00;0.00;;;;;;;-144.31;100.00;58022.63;4844976;29;20094;-58
2023/09/02 13:20:12;;;;;;;0.00;0.00;;;;;;;-144.31;100.00;58022.63;4849182;29;20479;-57
2023/09/02 13:23:36;;;;;;;0.00;0.00;;;;;;;-144.31;100.00;58022.63;4845358;29;20485;-57
2023/09/02 13:27:11;;;;;;;0.00;0.00;;;;;;;-144.31;100.00;58022.63;4845043;29;20052;-58
2023/09/02 13:30:35;;;;;;;0.00;0.00;;;;;;;-144.31;100.00;58022.63;4845610;29;20049;-57
2023/09/02 13:34:01;;;;;;;0.00;0.00;;;;;;;-144.31;100.00;58022.63;4847964;29;20107;-57
2023/09/02 13:37:25;;;;;;;0.00;0.00;;;;;;;-144.31;100.00;58022.63;4846169;29;20077;-57
2023/09/02 13:40:54;;;;;;;0.00;0.00;;;;;;;-144.31;100.00;58022.63;4848653;29;20133;-57
2023/09/02 13:44:22;;;;;;;0.00;0.00;;;;;;;-144.31;100.00;58022.63;4864504;29;20060;-57
2023/09/02 13:47:49;;;;;;;0.00;0.00;;;;;;;-144.31;100.00;58022.63;4844560;29;20145;-58